Time;durP1;ratioP1;P1;durP2;ratioP2;P2;SDS_P1;SDS_P2;PMS_P1;PMS_P2;Temp;Humidity;BMP_temperature;BMP_pressure;BME280_temperature;BME280_humidity;BME280_pressure;Samples;Min_cycle;Max_cycle;Signal;HPM_P1;HPM_P2
2022/04/24 00:01:52;;;;;;;8.77;6.43;;;10.20;88.00;;;;;;2126637;67;20193;-70
2022/04/24 00:04:36;;;;;;;7.75;6.40;;;10.20;88.20;;;;;;2124338;67;20296;-70
2022/04/24 00:07:20;;;;;;;6.63;5.90;;;10.10;88.30;;;;;;2110474;67;20273;-69
2022/04/24 00:10:07;;;;;;;6.90;5.80;;;10.10;88.60;;;;;;2123619;67;20300;-70
2022/04/24 00:12:50;;;;;;;7.88;5.95;;;10.10;89.00;;;;;;2121524;67;20184;-69
2022/04/24 00:15:34;;;;;;;8.30;6.50;;;10.00;89.10;;;;;;2114336;67;20261;-69
2022/04/24 00:18:18;;;;;;;7.03;6.10;;;9.90;89.20;;;;;;2118774;67;20301;-70
2022/04/24 00:21:01;;;;;;;;;;;9.90;89.70;;;;;;2119194;67;20180;-69
2022/04/24 00:23:44;;;;;;;6.80;5.97;;;9.90;90.40;;;;;;2120021;67;20096;-69
2022/04/24 00:26:29;;;;;;;10.18;6.25;;;9.80;89.50;;;;;;2119077;67;20313;-69
2022/04/24 00:29:12;;;;;;;7.00;6.13;;;9.80;89.80;;;;;;2121215;67;20247;-71
2022/04/24 00:31:58;;;;;;;6.50;5.88;;;9.80;90.10;;;;;;2132656;67;20751;-72
2022/04/24 00:34:42;;;;;;;7.57;6.15;;;9.70;90.30;;;;;;2138401;66;20745;-70
2022/04/24 00:37:26;;;;;;;6.88;6.18;;;9.70;90.40;;;;;;2138041;67;20364;-71
2022/04/24 00:40:12;;;;;;;10.55;6.45;;;9.70;90.50;;;;;;2130981;67;20328;-70
2022/04/24 00:42:54;;;;;;;8.82;6.93;;;9.70;90.50;;;;;;2117420;67;20287;-70
2022/04/24 00:45:36;;;;;;;10.20;7.50;;;9.70;90.50;;;;;;2104211;67;20335;-70
2022/04/24 00:48:19;;;;;;;6.70;5.97;;;9.70;90.50;;;;;;2105343;67;20266;-71
2022/04/24 00:51:04;;;;;;;7.05;6.07;;;9.70;90.50;;;;;;2118015;67;20313;-70
2022/04/24 00:53:47;;;;;;;6.90;5.97;;;9.60;90.40;;;;;;2125550;67;20176;-70
2022/04/24 00:56:32;;;;;;;7.50;6.15;;;9.60;90.60;;;;;;2132687;67;20323;-70
2022/04/24 00:59:15;;;;;;;7.65;6.43;;;9.60;90.80;;;;;;2132436;67;20268;-70
2022/04/24 01:01:59;;;;;;;7.75;7.00;;;9.50;90.70;;;;;;2132420;67;20194;-70
2022/04/24 01:04:44;;;;;;;7.07;6.38;;;9.50;90.70;;;;;;2107262;67;20214;-70
2022/04/24 01:07:28;;;;;;;8.13;6.55;;;9.40;90.70;;;;;;2118653;67;20232;-70
2022/04/24 01:10:12;;;;;;;8.20;7.40;;;9.40;90.70;;;;;;2111560;67;20240;-70
2022/04/24 01:12:57;;;;;;;;;;;9.40;90.70;;;;;;2132854;66;20253;-69
2022/04/24 01:15:42;;;;;;;8.50;6.80;;;9.30;90.60;;;;;;2132002;67;20073;-70
2022/04/24 01:18:28;;;;;;;7.60;6.50;;;9.30;90.50;;;;;;2137372;66;20675;-73
2022/04/24 01:21:14;;;;;;;7.30;6.38;;;9.30;90.60;;;;;;2133245;67;20357;-70
2022/04/24 01:24:00;;;;;;;;;;;9.20;90.70;;;;;;2131851;67;20254;-70
2022/04/24 01:26:44;;;;;;;8.73;6.93;;;9.20;90.80;;;;;;2124716;67;20644;-70
2022/04/24 01:29:27;;;;;;;7.95;7.15;;;9.20;90.70;;;;;;2111017;67;20342;-70
2022/04/24 01:32:12;;;;;;;7.57;6.68;;;9.10;90.80;;;;;;2103294;67;20642;-70
2022/04/24 01:34:58;;;;;;;7.82;6.82;;;9.00;90.90;;;;;;2111171;67;20353;-70
2022/04/24 01:37:43;;;;;;;;;;;9.00;91.10;;;;;;2117589;67;20305;-70
2022/04/24 01:40:44;;;;;;;12.25;7.53;;;8.90;91.30;;;;;;2127109;67;20607;-70
2022/04/24 01:43:30;;;;;;;7.47;6.72;;;8.90;91.10;;;;;;2110171;67;20237;-69
2022/04/24 01:46:13;;;;;;;8.93;7.00;;;8.80;91.20;;;;;;2131528;67;20718;-70
2022/04/24 01:48:57;;;;;;;;;;;8.80;91.60;;;;;;2140185;66;20167;-71
2022/04/24 01:51:41;;;;;;;9.30;6.80;;;8.70;91.40;;;;;;2135484;67;20129;-70
2022/04/24 01:54:26;;;;;;;9.38;7.13;;;8.70;91.70;;;;;;2152416;66;20441;-70
2022/04/24 01:57:08;;;;;;;11.10;7.53;;;8.60;92.00;;;;;;2148657;66;20201;-69
2022/04/24 01:59:51;;;;;;;10.82;7.97;;;8.50;92.30;;;;;;2146878;66;20211;-69
2022/04/24 02:02:33;;;;;;;8.00;6.95;;;8.50;92.60;;;;;;2145323;66;20198;-71
2022/04/24 02:05:19;;;;;;;9.82;7.57;;;8.40;92.80;;;;;;2126511;67;20577;-70
2022/04/24 02:08:04;;;;;;;9.63;8.25;;;8.40;93.20;;;;;;2155135;66;20334;-70
2022/04/24 02:10:46;;;;;;;8.60;7.32;;;8.30;93.30;;;;;;2137005;66;20259;-70
2022/04/24 02:13:30;;;;;;;9.32;7.95;;;8.20;93.50;;;;;;2150093;66;20877;-70
2022/04/24 02:16:15;;;;;;;9.63;8.23;;;8.10;93.90;;;;;;2125678;67;20590;-71
2022/04/24 02:19:00;;;;;;;10.82;7.85;;;8.10;94.00;;;;;;2140716;66;20202;-69
2022/04/24 02:21:46;;;;;;;10.57;7.85;;;8.00;94.10;;;;;;2148243;66;20178;-71
2022/04/24 02:24:31;;;;;;;;;;;7.90;94.40;;;;;;2144697;66;20162;-71
2022/04/24 02:27:15;;;;;;;10.43;7.82;;;8.00;94.70;;;;;;2141677;67;20043;-70
2022/04/24 02:29:57;;;;;;;9.90;8.10;;;7.90;94.60;;;;;;2133262;67;20191;-71
2022/04/24 02:33:00;;;;;;;11.20;7.40;;;7.80;95.10;;;;;;2132881;66;20320;-70
2022/04/24 02:35:44;;;;;;;9.60;8.07;;;7.80;95.10;;;;;;2132394;67;20423;-73
2022/04/24 02:38:29;;;;;;;7.82;6.88;;;7.80;95.40;;;;;;2116553;67;20675;-71
2022/04/24 02:41:13;;;;;;;10.52;7.60;;;7.70;95.60;;;;;;2119139;67;20317;-71
2022/04/24 02:43:58;;;;;;;9.07;7.93;;;7.70;95.80;;;;;;2129533;67;20387;-70
2022/04/24 02:46:41;;;;;;;9.95;8.82;;;7.70;95.90;;;;;;2118656;67;20251;-71
2022/04/24 02:49:25;;;;;;;9.00;8.00;;;7.60;96.30;;;;;;2125065;67;20402;-71
2022/04/24 02:52:10;;;;;;;12.50;7.72;;;7.60;96.40;;;;;;2125086;67;20173;-70
2022/04/24 02:54:54;;;;;;;7.88;7.07;;;7.60;96.80;;;;;;2133703;67;20366;-70
2022/04/24 02:57:37;;;;;;;9.52;7.68;;;7.60;97.00;;;;;;2134516;67;20598;-69
2022/04/24 03:00:24;;;;;;;10.90;8.25;;;7.50;97.10;;;;;;2133920;67;20180;-69
2022/04/24 03:03:07;;;;;;;9.57;8.27;;;7.50;97.20;;;;;;2140422;67;20340;-70
2022/04/24 03:05:50;;;;;;;9.75;7.80;;;7.50;97.60;;;;;;2153099;66;20279;-70
2022/04/24 03:08:35;;;;;;;8.95;8.02;;;7.50;97.80;;;;;;2149763;66;20198;-70
2022/04/24 03:11:18;;;;;;;9.27;7.70;;;7.40;97.90;;;;;;2138855;67;20292;-71
2022/04/24 03:14:01;;;;;;;10.75;8.00;;;7.40;98.20;;;;;;2132261;67;20340;-71
2022/04/24 03:16:47;;;;;;;8.32;7.45;;;7.40;98.70;;;;;;2127045;67;20410;-69
2022/04/24 03:19:32;;;;;;;10.80;7.45;;;7.40;98.80;;;;;;2132117;67;20308;-69
2022/04/24 03:22:15;;;;;;;8.48;7.47;;;7.40;99.20;;;;;;2126310;67;20264;-70
2022/04/24 03:25:00;;;;;;;9.57;8.00;;;7.30;99.00;;;;;;2126036;67;20168;-71
2022/04/24 03:27:45;;;;;;;8.88;7.05;;;7.30;99.10;;;;;;2147143;66;20400;-71
2022/04/24 03:30:30;;;;;;;9.63;7.22;;;7.30;99.30;;;;;;2132243;67;20175;-70
2022/04/24 03:33:16;;;;;;;11.40;8.20;;;7.30;99.40;;;;;;2124699;67;20260;-70
2022/04/24 03:36:00;;;;;;;8.90;7.22;;;7.30;99.60;;;;;;2103307;67;20879;-70
2022/04/24 03:38:43;;;;;;;8.00;7.10;;;7.20;99.50;;;;;;2102840;67;20214;-71
2022/04/24 03:41:28;;;;;;;7.85;7.03;;;7.80;99.70;;;;;;2110348;67;20654;-70
2022/04/24 03:44:12;;;;;;;11.75;7.90;;;7.80;99.70;;;;;;2116178;67;20237;-69
2022/04/24 03:46:54;;;;;;;10.35;7.55;;;7.20;99.90;;;;;;2109062;67;20827;-69
2022/04/24 03:49:35;;;;;;;8.40;7.25;;;7.20;99.90;;;;;;2111013;67;20232;-69
2022/04/24 03:52:19;;;;;;;8.65;7.47;;;7.20;99.90;;;;;;2103161;67;20276;-70
2022/04/24 03:55:04;;;;;;;8.07;7.07;;;7.10;99.90;;;;;;2098065;68;20200;-69
2022/04/24 03:57:47;;;;;;;10.50;7.95;;;7.20;99.90;;;;;;2083759;68;20247;-69
2022/04/24 04:00:32;;;;;;;8.20;6.78;;;7.20;99.90;;;;;;2087747;68;20307;-69
2022/04/24 04:03:14;;;;;;;8.15;7.25;;;7.10;99.90;;;;;;2093587;68;20267;-70
2022/04/24 04:05:56;;;;;;;10.57;6.97;;;7.10;99.90;;;;;;2100765;68;20193;-71
2022/04/24 04:08:39;;;;;;;10.65;7.10;;;7.10;99.90;;;;;;2106404;67;20207;-69
2022/04/24 04:11:23;;;;;;;9.15;6.80;;;7.30;99.90;;;;;;2094095;68;20280;-68
2022/04/24 04:14:05;;;;;;;8.98;7.68;;;7.00;99.90;;;;;;2119575;67;20728;-70
2022/04/24 04:16:48;;;;;;;10.07;7.32;;;7.00;99.90;;;;;;2118394;67;20197;-69
2022/04/24 04:19:33;;;;;;;10.52;7.32;;;7.00;99.90;;;;;;2126675;67;20168;-69
2022/04/24 04:22:17;;;;;;;7.93;6.95;;;7.00;99.90;;;;;;2139403;66;20185;-70
2022/04/24 04:25:01;;;;;;;7.85;7.00;;;6.90;99.90;;;;;;2111610;67;20232;-70
2022/04/24 04:27:43;;;;;;;8.80;7.07;;;6.90;99.90;;;;;;2117024;67;20220;-70
2022/04/24 04:30:26;;;;;;;9.20;7.40;;;6.90;99.90;;;;;;2113424;67;20721;-70
2022/04/24 04:33:11;;;;;;;8.32;6.82;;;6.90;99.90;;;;;;2111820;67;20165;-69
2022/04/24 04:35:57;;;;;;;8.80;7.43;;;6.90;99.90;;;;;;2104956;67;20170;-70
2022/04/24 04:38:43;;;;;;;8.50;6.78;;;6.90;99.90;;;;;;2097596;68;20261;-69
2022/04/24 04:41:27;;;;;;;8.75;7.07;;;6.90;99.90;;;;;;2082963;68;20724;-70
2022/04/24 04:44:10;;;;;;;10.40;7.38;;;6.90;99.90;;;;;;2077733;68;20443;-70
2022/04/24 04:46:55;;;;;;;10.65;7.05;;;6.90;99.90;;;;;;2079104;68;20747;-70
2022/04/24 04:49:36;;;;;;;13.65;7.45;;;7.00;99.90;;;;;;2076916;68;20364;-71
2022/04/24 04:52:18;;;;;;;12.23;7.32;;;7.00;99.90;;;;;;2098804;68;20230;-72
2022/04/24 04:55:10;;;;;;;12.38;8.60;;;7.00;99.90;;;;;;2098218;68;20171;-70
2022/04/24 04:57:54;;;;;;;10.68;7.50;;;7.10;99.90;;;;;;2107121;68;20253;-70
2022/04/24 05:00:37;;;;;;;9.32;7.43;;;7.10;99.90;;;;;;2105796;67;20602;-70
2022/04/24 05:03:21;;;;;;;10.27;7.60;;;7.10;99.90;;;;;;2105224;67;20197;-71
2022/04/24 05:06:04;;;;;;;13.65;8.43;;;7.10;99.90;;;;;;2103440;68;20174;-70
2022/04/24 05:08:46;;;;;;;9.93;7.63;;;7.20;99.90;;;;;;2117194;67;20667;-70
2022/04/24 05:11:27;;;;;;;9.45;8.23;;;7.10;99.90;;;;;;2113938;67;20268;-70
2022/04/24 05:14:29;;;;;;;12.10;8.55;;;7.20;99.90;;;;;;2111878;67;20403;-70
2022/04/24 05:17:10;;;;;;;11.80;8.38;;;7.10;99.90;;;;;;2127617;66;20190;-70
2022/04/24 05:19:53;;;;;;;13.45;8.18;;;7.20;99.90;;;;;;2141065;66;20319;-69
2022/04/24 05:22:39;;;;;;;13.60;8.23;;;7.20;99.90;;;;;;2140837;66;20365;-70
2022/04/24 05:25:22;;;;;;;10.30;8.10;;;7.20;99.90;;;;;;2146988;66;20211;-69
2022/04/24 05:28:07;;;;;;;14.50;8.55;;;7.20;99.90;;;;;;2155250;66;20779;-70
2022/04/24 05:30:49;;;;;;;12.63;8.60;;;7.30;99.90;;;;;;2163593;66;20382;-70
2022/04/24 05:33:30;;;;;;;13.15;8.07;;;7.30;99.90;;;;;;2141187;66;20716;-69
2022/04/24 05:36:13;;;;;;;10.77;8.32;;;7.30;99.90;;;;;;2150470;66;20173;-69
2022/04/24 05:38:58;;;;;;;13.27;9.40;;;7.30;99.90;;;;;;2146282;66;20736;-70
2022/04/24 05:41:44;;;;;;;10.57;8.75;;;7.30;99.90;;;;;;2134485;67;20587;-71
2022/04/24 05:44:29;;;;;;;14.35;9.05;;;7.40;99.90;;;;;;2117707;67;20184;-68
2022/04/24 05:47:15;;;;;;;10.65;7.53;;;7.40;99.90;;;;;;2120885;67;20209;-70
2022/04/24 05:49:59;;;;;;;11.77;8.48;;;7.40;99.90;;;;;;2117800;67;20181;-70
2022/04/24 05:52:42;;;;;;;11.98;7.90;;;7.50;99.90;;;;;;2128179;67;20220;-70
2022/04/24 05:55:25;;;;;;;10.70;8.43;;;7.50;99.90;;;;;;2126720;67;20347;-70
2022/04/24 05:58:08;;;;;;;9.52;7.40;;;7.60;99.90;;;;;;2149429;66;20319;-70
2022/04/24 06:00:53;;;;;;;11.23;8.13;;;7.60;99.90;;;;;;2141896;67;20166;-70
2022/04/24 06:03:40;;;;;;;11.38;7.43;;;7.70;99.90;;;;;;2135568;67;20226;-70
2022/04/24 06:06:21;;;;;;;10.73;7.20;;;7.70;99.90;;;;;;2133339;67;20176;-69
2022/04/24 06:09:07;;;;;;;10.88;6.75;;;7.80;99.90;;;;;;2129859;67;20329;-69
2022/04/24 06:11:56;;;;;;;8.55;6.53;;;7.90;99.90;;;;;;2143211;66;20364;-70
2022/04/24 06:14:40;;;;;;;10.43;6.88;;;8.00;99.90;;;;;;2140882;66;20377;-69
2022/04/24 06:17:26;;;;;;;8.02;6.35;;;8.10;99.90;;;;;;2140524;66;20725;-70
2022/04/24 06:20:11;;;;;;;7.38;5.88;;;8.20;99.90;;;;;;2139755;66;20590;-71
2022/04/24 06:22:58;;;;;;;7.53;5.85;;;8.20;99.90;;;;;;2122775;67;20884;-69
2022/04/24 06:25:44;;;;;;;8.65;6.13;;;8.30;99.90;;;;;;2120835;67;20237;-70
2022/04/24 06:28:25;;;;;;;10.02;5.72;;;8.40;99.90;;;;;;2120944;67;20261;-68
2022/04/24 06:31:07;;;;;;;7.00;4.75;;;8.50;99.90;;;;;;2125786;67;20830;-71
2022/04/24 06:33:51;;;;;;;6.07;5.05;;;8.50;99.90;;;;;;2124757;67;20234;-71
2022/04/24 06:36:33;;;;;;;8.38;4.90;;;8.60;99.90;;;;;;2112664;67;20800;-70
2022/04/24 06:39:15;;;;;;;5.78;4.10;;;8.60;99.90;;;;;;2126066;67;20499;-68
2022/04/24 06:41:58;;;;;;;5.80;3.78;;;8.70;99.90;;;;;;2143531;66;20342;-69
2022/04/24 06:44:43;;;;;;;6.15;4.00;;;8.80;99.90;;;;;;2134780;67;20395;-68
2022/04/24 06:47:27;;;;;;;4.97;3.85;;;8.80;99.90;;;;;;2120793;67;20236;-70
2022/04/24 06:50:12;;;;;;;7.50;4.28;;;8.90;99.90;;;;;;2119179;67;20830;-69
2022/04/24 06:52:58;;;;;;;6.88;3.80;;;8.90;99.90;;;;;;2127497;67;20168;-70
2022/04/24 06:55:41;;;;;;;6.72;3.38;;;9.00;99.90;;;;;;2117945;67;20220;-70
2022/04/24 06:58:24;;;;;;;5.13;3.53;;;9.10;99.90;;;;;;2114732;67;20314;-69
2022/04/24 07:01:06;;;;;;;5.75;3.22;;;9.20;99.90;;;;;;2140129;66;20275;-70
2022/04/24 07:03:49;;;;;;;4.20;2.97;;;9.30;99.90;;;;;;2125465;67;20220;-70
2022/04/24 07:06:38;;;;;;;5.70;2.95;;;9.30;99.90;;;;;;2125851;67;20297;-69
2022/04/24 07:09:22;;;;;;;4.65;2.95;;;9.40;99.70;;;;;;2126488;67;20315;-70
2022/04/24 07:12:05;;;;;;;5.03;2.97;;;9.50;99.40;;;;;;2132142;67;20371;-70
2022/04/24 07:14:47;;;;;;;4.38;2.28;;;9.60;99.00;;;;;;2120565;67;20997;-70
2022/04/24 07:17:30;;;;;;;3.20;2.50;;;9.80;98.60;;;;;;2119880;67;20677;-70
2022/04/24 07:20:17;;;;;;;4.18;2.33;;;9.80;98.20;;;;;;2125372;67;20254;-69
2022/04/24 07:23:06;;;;;;;4.40;2.88;;;9.90;97.90;;;;;;2119130;67;20202;-70
2022/04/24 07:25:52;;;;;;;2.88;2.35;;;10.00;97.70;;;;;;2132636;67;20379;-71
2022/04/24 07:28:38;;;;;;;4.20;2.85;;;10.10;97.40;;;;;;2124909;67;20288;-70
2022/04/24 07:31:22;;;;;;;6.10;2.67;;;10.20;97.00;;;;;;2131675;67;20299;-69
2022/04/24 07:34:05;;;;;;;3.05;2.65;;;10.30;96.70;;;;;;2113743;67;20201;-72
2022/04/24 07:36:49;;;;;;;4.70;3.08;;;10.40;96.30;;;;;;2126641;67;20217;-69
2022/04/24 07:39:31;;;;;;;3.38;2.47;;;10.50;96.10;;;;;;2133515;67;20798;-70
2022/04/24 07:42:13;;;;;;;4.30;2.78;;;10.60;95.70;;;;;;2124749;67;20211;-70
2022/04/24 07:44:54;;;;;;;2.83;2.38;;;10.70;95.40;;;;;;2125567;67;20653;-73
2022/04/24 07:47:37;;;;;;;4.22;2.60;;;10.80;94.90;;;;;;2113062;67;20324;-68
2022/04/24 07:50:20;;;;;;;3.03;2.50;;;10.80;94.70;;;;;;2118953;67;20295;-69
2022/04/24 07:53:05;;;;;;;3.95;2.72;;;11.00;94.50;;;;;;2118318;67;20184;-70
2022/04/24 07:55:51;;;;;;;4.97;2.90;;;11.00;94.30;;;;;;2125261;67;20274;-72
2022/04/24 07:58:35;;;;;;;3.33;2.63;;;11.10;94.20;;;;;;2125351;67;20321;-71
2022/04/24 08:01:22;;;;;;;4.70;3.00;;;11.10;94.20;;;;;;2133017;67;20667;-71
2022/04/24 08:04:03;;;;;;;5.50;2.65;;;11.20;94.40;;;;;;2136516;66;20246;-69
2022/04/24 08:06:45;;;;;;;2.90;2.45;;;11.20;94.10;;;;;;2138089;66;20264;-70
2022/04/24 08:09:28;;;;;;;4.15;2.63;;;11.30;94.00;;;;;;2130180;67;20632;-70
2022/04/24 08:12:14;;;;;;;4.13;2.63;;;11.30;93.90;;;;;;2106078;67;20284;-70
2022/04/24 08:14:59;;;;;;;;;;;11.40;93.70;;;;;;2093681;68;20392;-70
2022/04/24 08:17:43;;;;;;;4.38;2.97;;;11.40;93.40;;;;;;2091428;68;20263;-71
2022/04/24 08:20:25;;;;;;;4.35;2.50;;;11.50;93.10;;;;;;2093202;68;20361;-69
2022/04/24 08:23:08;;;;;;;5.28;3.00;;;11.50;92.60;;;;;;2106858;67;20254;-72
2022/04/24 08:25:52;;;;;;;;;;;11.60;92.60;;;;;;2118468;67;20203;-69
2022/04/24 08:28:35;;;;;;;4.05;3.00;;;11.60;92.60;;;;;;2109196;67;20236;-70
2022/04/24 08:31:20;;;;;;;6.57;3.08;;;11.60;92.70;;;;;;2104132;68;20732;-70
2022/04/24 08:34:01;;;;;;;5.03;2.70;;;11.70;92.60;;;;;;2109378;67;20374;-69
2022/04/24 08:36:44;;;;;;;3.95;3.20;;;11.80;92.00;;;;;;2125429;67;20176;-70
2022/04/24 08:39:32;;;;;;;6.85;2.70;;;11.80;91.70;;;;;;2117465;67;20218;-70
2022/04/24 08:42:19;;;;;;;4.05;2.42;;;11.80;91.00;;;;;;2124474;67;20236;-71
2022/04/24 08:45:07;;;;;;;4.50;2.45;;;11.90;90.60;;;;;;2126082;67;20368;-70
2022/04/24 08:47:49;;;;;;;3.38;2.67;;;12.00;90.60;;;;;;2143023;66;20174;-71
2022/04/24 08:50:55;;;;;;;6.68;2.50;;;12.10;90.20;;;;;;2139111;66;20482;-70
2022/04/24 08:53:42;;;;;;;5.22;3.47;;;12.20;90.10;;;;;;2145879;66;20310;-72
2022/04/24 08:56:26;;;;;;;3.85;3.17;;;12.30;90.10;;;;;;2134132;67;20984;-75
2022/04/24 08:59:12;;;;;;;5.43;3.25;;;12.40;90.30;;;;;;2106237;67;20286;-72
2022/04/24 09:02:00;;;;;;;6.45;2.95;;;12.50;90.40;;;;;;2104214;67;20174;-75
2022/04/24 09:04:44;;;;;;;4.15;2.83;;;12.50;90.40;;;;;;2103852;67;20215;-74
2022/04/24 09:07:33;;;;;;;4.32;2.60;;;12.50;90.40;;;;;;2102326;67;20680;-73
2022/04/24 09:10:18;;;;;;;5.32;3.08;;;12.50;89.70;;;;;;2096530;68;20222;-72
2022/04/24 09:13:03;;;;;;;7.47;3.40;;;12.60;89.40;;;;;;2110804;67;20969;-75
2022/04/24 09:15:57;;;;;;;6.10;3.60;;;12.60;88.80;;;;;;2116289;67;20189;-77
2022/04/24 09:18:46;;;;;;;5.85;2.97;;;12.60;88.40;;;;;;2108170;67;20193;-74
2022/04/24 09:21:30;;;;;;;4.60;3.38;;;13.30;88.80;;;;;;2109574;67;20428;-73
2022/04/24 09:24:11;;;;;;;4.13;2.95;;;12.80;88.20;;;;;;2104248;67;20402;-74
2022/04/24 09:26:57;;;;;;;4.60;2.97;;;12.80;87.70;;;;;;2106097;67;20223;-74
2022/04/24 09:29:40;;;;;;;5.57;3.25;;;12.90;86.70;;;;;;2102263;67;20228;-73
2022/04/24 09:32:25;;;;;;;3.60;2.45;;;13.00;86.30;;;;;;2112747;67;20766;-75
2022/04/24 09:35:10;;;;;;;5.47;2.73;;;13.10;85.60;;;;;;2105066;67;20225;-69
2022/04/24 09:38:17;;;;;;;7.07;3.03;;;13.20;84.40;;;;;;2097479;68;20170;-75
2022/04/24 09:41:04;;;;;;;5.50;2.88;;;13.30;82.70;;;;;;2102320;67;20191;-74
2022/04/24 09:43:52;;;;;;;6.78;2.85;;;13.40;81.90;;;;;;2099175;68;20839;-72
2022/04/24 09:46:38;;;;;;;4.10;3.33;;;13.50;81.50;;;;;;2097150;68;20200;-72
2022/04/24 09:49:24;;;;;;;4.00;2.25;;;13.60;80.80;;;;;;2100939;68;20186;-75
2022/04/24 09:52:17;;;;;;;5.43;3.58;;;13.60;80.10;;;;;;2089787;68;20568;-72
2022/04/24 09:55:11;;;;;;;3.72;2.22;;;13.70;80.20;;;;;;2091807;68;20553;-73
2022/04/24 09:57:55;;;;;;;3.85;2.50;;;13.90;79.20;;;;;;2097478;68;20206;-74
2022/04/24 10:00:44;;;;;;;6.47;3.03;;;14.00;78.30;;;;;;2110802;67;20903;-74
2022/04/24 10:03:26;;;;;;;5.85;2.50;;;14.10;77.80;;;;;;2110548;67;20493;-73
2022/04/24 10:06:11;;;;;;;3.30;2.40;;;14.20;77.80;;;;;;2100560;68;20464;-73
2022/04/24 10:08:58;;;;;;;3.38;2.33;;;14.40;76.80;;;;;;2091395;68;20172;-72
2022/04/24 10:11:47;;;;;;;3.08;2.55;;;14.50;76.70;;;;;;2094803;68;20465;-73
2022/04/24 10:14:59;;;;;;;4.00;1.88;;;14.60;75.50;;;;;;2094584;68;20208;-72
2022/04/24 10:18:30;;;;;;;3.42;2.45;;;14.60;74.90;;;;;;2101079;67;20202;-75
2022/04/24 10:22:01;;;;;;;5.28;2.38;;;14.70;74.70;;;;;;2078615;68;20416;-76
2022/04/24 10:24:45;;;;;;;3.20;2.33;;;14.80;73.20;;;;;;2076002;68;20247;-75
2022/04/24 10:27:41;;;;;;;4.88;2.72;;;14.80;73.20;;;;;;2077032;69;20247;-76
2022/04/24 10:30:26;;;;;;;2.60;2.28;;;15.20;72.20;;;;;;2076651;68;20192;-75
2022/04/24 10:33:52;;;;;;;5.35;2.20;;;14.90;72.40;;;;;;2080256;68;20279;-76
2022/04/24 10:36:35;;;;;;;10.85;3.05;;;15.10;72.20;;;;;;2066253;69;20399;-76
2022/04/24 10:39:23;;;;;;;5.85;2.25;;;15.30;72.00;;;;;;2084030;68;20191;-77
2022/04/24 10:42:12;;;;;;;4.13;2.28;;;15.40;70.80;;;;;;2089169;68;20209;-75
2022/04/24 10:44:55;;;;;;;4.72;2.22;;;15.60;70.10;;;;;;2091618;68;20734;-76
2022/04/24 10:48:05;;;;;;;4.68;2.25;;;15.80;70.00;;;;;;2100033;68;20443;-71
2022/04/24 10:50:52;;;;;;;2.67;1.85;;;16.40;67.90;;;;;;2104449;68;20285;-76
2022/04/24 10:53:57;;;;;;;3.20;2.10;;;17.30;66.60;;;;;;2105690;68;20347;-76
2022/04/24 10:56:49;;;;;;;4.63;2.05;;;18.10;64.30;;;;;;2100172;68;20278;-75
2022/04/24 10:59:47;;;;;;;4.05;2.20;;;18.70;63.60;;;;;;2119426;67;20352;-77
2022/04/24 11:02:33;;;;;;;3.42;2.30;;;19.30;61.70;;;;;;2115384;67;20209;-76
2022/04/24 11:05:21;;;;;;;4.20;2.60;;;19.90;62.20;;;;;;2114836;67;20262;-77
2022/04/24 11:08:07;;;;;;;4.13;2.33;;;20.20;58.90;;;;;;2125746;67;20213;-76
2022/04/24 11:10:50;;;;;;;5.75;2.50;;;20.40;58.30;;;;;;2122839;67;20232;-75
2022/04/24 11:13:33;;;;;;;5.65;3.13;;;20.60;57.80;;;;;;2132721;67;20618;-77
2022/04/24 11:16:17;;;;;;;;;;;20.80;56.30;;;;;;2124043;67;20224;-76
2022/04/24 11:19:28;;;;;;;7.97;2.72;;;20.60;56.90;;;;;;2105591;67;20227;-76
2022/04/24 11:22:11;;;;;;;5.13;2.90;;;21.00;56.50;;;;;;2111105;67;20238;-78
2022/04/24 11:24:57;;;;;;;4.82;2.67;;;21.50;55.70;;;;;;2125513;67;20379;-81
2022/04/24 11:27:38;;;;;;;;;;;22.00;54.00;;;;;;2113209;67;20370;-76
2022/04/24 11:30:37;;;;;;;4.38;2.60;;;22.20;53.30;;;;;;2105247;67;20096;-80
2022/04/24 11:33:20;;;;;;;3.90;2.97;;;22.30;52.20;;;;;;2109932;67;20801;-75
2022/04/24 11:36:05;;;;;;;;;;;22.90;51.90;;;;;;2094735;68;20230;-79
2022/04/24 11:38:50;;;;;;;5.22;2.92;;;23.50;51.70;;;;;;2102640;67;20058;-76
2022/04/24 11:41:35;;;;;;;5.22;3.17;;;24.20;50.90;;;;;;2109945;67;20234;-76
2022/04/24 11:50:20;;;;;;;4.70;3.38;;;26.00;47.40;;;;;;2090011;68;20180;-75
2022/04/24 11:53:02;;;;;;;6.47;3.63;;;26.30;45.90;;;;;;2093200;67;20270;-76
2022/04/24 11:56:01;;;;;;;4.85;2.88;;;26.30;45.80;;;;;;2117131;67;20345;-77
2022/04/24 11:58:46;;;;;;;5.53;3.10;;;26.60;45.00;;;;;;2118211;67;20575;-76
2022/04/24 12:01:28;;;;;;;5.55;3.65;;;26.90;44.60;;;;;;2108465;67;20201;-77
2022/04/24 12:04:17;;;;;;;3.63;2.83;;;27.30;44.00;;;;;;2121556;67;20329;-77
2022/04/24 12:07:06;;;;;;;3.75;3.22;;;27.50;43.00;;;;;;2118519;67;20196;-76
2022/04/24 12:09:58;;;;;;;3.85;3.13;;;27.60;42.70;;;;;;2119473;67;20429;-80
2022/04/24 12:12:47;;;;;;;3.55;3.25;;;27.80;42.40;;;;;;2119121;67;20209;-74
2022/04/24 12:15:31;;;;;;;5.05;3.60;;;27.90;41.70;;;;;;2108797;67;20328;-78
2022/04/24 12:18:22;;;;;;;4.18;2.63;;;27.80;41.80;;;;;;2117752;67;20205;-80
2022/04/24 12:21:19;;;;;;;5.30;2.80;;;27.80;41.00;;;;;;2115798;67;20201;-79
2022/04/24 12:24:01;;;;;;;3.73;3.20;;;28.20;41.20;;;;;;2104805;67;20722;-81
2022/04/24 12:26:51;;;;;;;4.45;2.70;;;28.40;40.90;;;;;;2098918;68;20326;-74
2022/04/24 12:29:48;;;;;;;4.38;3.38;;;28.50;40.50;;;;;;2103402;67;20370;-74
2022/04/24 12:32:31;;;;;;;5.43;3.40;;;28.70;40.70;;;;;;2105855;67;20379;-73
2022/04/24 12:35:33;;;;;;;5.97;3.00;;;28.40;39.90;;;;;;2101554;67;20228;-71
2022/04/24 12:38:20;;;;;;;3.65;2.60;;;27.40;40.70;;;;;;2105072;67;20249;-69
2022/04/24 12:41:03;;;;;;;6.53;3.40;;;27.50;40.70;;;;;;2112258;67;20251;-77
2022/04/24 12:43:47;;;;;;;2.83;2.63;;;28.20;40.70;;;;;;2100631;67;20272;-81
2022/04/24 12:46:30;;;;;;;3.90;3.10;;;28.80;39.80;;;;;;2110879;67;20201;-79
2022/04/24 12:49:16;;;;;;;5.15;3.20;;;29.50;39.80;;;;;;2114664;67;20308;-79
2022/04/24 12:52:01;;;;;;;2.70;2.47;;;30.60;39.50;;;;;;2122291;67;20747;-79
2022/04/24 12:54:46;;;;;;;4.75;3.22;;;31.60;38.40;;;;;;2121964;67;20727;-79
2022/04/24 12:57:28;;;;;;;4.70;3.17;;;32.00;37.70;;;;;;2131050;67;20215;-72
2022/04/24 13:00:17;;;;;;;3.47;3.17;;;31.90;37.10;;;;;;2122620;67;20410;-72
2022/04/24 13:03:04;;;;;;;6.93;3.38;;;31.80;36.80;;;;;;2119532;67;20187;-72
2022/04/24 13:06:15;;;;;;;4.15;3.25;;;31.90;36.50;;;;;;2104551;67;20274;-71
2022/04/24 13:09:00;;;;;;;4.03;2.75;;;31.70;37.10;;;;;;2102186;67;20667;-71
2022/04/24 13:11:45;;;;;;;3.33;2.70;;;32.00;36.70;;;;;;2107949;67;20573;-72
2022/04/24 13:14:33;;;;;;;5.72;3.25;;;31.80;36.20;;;;;;2113643;67;20210;-73
2022/04/24 13:20:20;;;;;;;4.80;3.05;;;31.70;35.70;;;;;;1902406;67;15087432;-71
2022/04/24 13:23:04;;;;;;;4.55;2.88;;;31.90;35.80;;;;;;2117212;67;20184;-74
2022/04/24 13:25:50;;;;;;;4.77;3.10;;;32.00;35.40;;;;;;2111046;67;20188;-73
2022/04/24 13:28:41;;;;;;;5.13;3.00;;;32.10;35.10;;;;;;2121846;67;20536;-71
2022/04/24 13:31:30;;;;;;;5.70;3.33;;;32.40;35.10;;;;;;2129051;67;20243;-71
2022/04/24 13:34:18;;;;;;;3.13;2.80;;;33.00;34.60;;;;;;2128846;67;20839;-73
2022/04/24 13:40:03;;;;;;;4.10;2.58;;;33.00;34.00;;;;;;2143209;66;20300;-72
2022/04/24 13:42:45;;;;;;;4.20;2.80;;;33.40;33.80;;;;;;2130769;67;20369;-73
2022/04/24 13:45:31;;;;;;;4.15;2.75;;;33.70;33.50;;;;;;2127615;67;20199;-73
2022/04/24 13:48:24;;;;;;;3.28;2.75;;;33.70;33.20;;;;;;2130327;66;20205;-73
2022/04/24 13:51:15;;;;;;;3.90;2.80;;;34.10;33.40;;;;;;2132852;66;20326;-72
2022/04/24 13:54:00;;;;;;;8.90;3.00;;;34.20;32.90;;;;;;2118433;67;20711;-71
2022/04/24 13:56:56;;;;;;;3.75;3.03;;;33.90;32.60;;;;;;2117611;67;20673;-74
2022/04/24 13:59:43;;;;;;;4.32;2.58;;;33.10;33.20;;;;;;2121767;67;20254;-74
2022/04/24 14:02:27;;;;;;;5.70;2.60;;;33.00;33.70;;;;;;2120121;67;20233;-73
2022/04/24 14:05:13;;;;;;;3.60;2.80;;;33.10;33.40;;;;;;2129086;66;20333;-74
2022/04/24 14:07:56;;;;;;;3.92;2.75;;;33.00;33.30;;;;;;2141570;66;20195;-74
2022/04/24 14:10:48;;;;;;;6.70;3.72;;;32.90;33.40;;;;;;2132917;66;20272;-74
2022/04/24 14:13:33;;;;;;;3.50;2.92;;;32.50;33.30;;;;;;2121914;67;20212;-73
2022/04/24 14:16:15;;;;;;;3.15;2.70;;;32.50;33.80;;;;;;2132109;66;20238;-74
2022/04/24 14:19:03;;;;;;;2.88;2.58;;;32.70;33.70;;;;;;2135316;67;20288;-74
2022/04/24 14:21:55;;;;;;;4.35;2.63;;;33.00;33.70;;;;;;2131538;67;20260;-73
2022/04/24 14:24:42;;;;;;;5.68;2.67;;;33.40;33.40;;;;;;2133325;66;20788;-75
2022/04/24 14:27:29;;;;;;;4.25;3.25;;;33.40;33.10;;;;;;2129794;67;20287;-72
2022/04/24 14:30:17;;;;;;;3.80;2.50;;;33.20;33.10;;;;;;2113626;67;20185;-72
2022/04/24 14:33:01;;;;;;;4.32;2.38;;;32.90;33.60;;;;;;2115407;67;20374;-73
2022/04/24 14:35:45;;;;;;;5.20;2.78;;;33.20;33.50;;;;;;2117609;67;20377;-73
2022/04/24 14:38:32;;;;;;;5.30;2.53;;;33.40;33.40;;;;;;2114093;67;20440;-73
2022/04/24 14:41:17;;;;;;;5.82;2.60;;;33.20;33.30;;;;;;2117069;67;20415;-74
2022/04/24 14:44:02;;;;;;;4.75;2.78;;;33.00;33.50;;;;;;2126643;67;20290;-75